Time;durP1;ratioP1;P1;durP2;ratioP2;P2;SDS_P1;SDS_P2;PMS_P1;PMS_P2;Temp;Humidity;BMP_temperature;BMP_pressure;BME280_temperature;BME280_humidity;BME280_pressure;Samples;Min_cycle;Max_cycle;Signal;HPM_P1;HPM_P2
2023/06/21 00:00:17;;;;;;;8.65;7.85;;;21.10;99.90;;;;;;5025179;28;20017;-33
2023/06/21 00:02:43;;;;;;;7.00;6.28;;;21.00;99.90;;;;;;5024802;28;20033;-33
2023/06/21 00:05:09;;;;;;;8.90;8.10;;;21.00;99.90;;;;;;5024591;28;20103;-34
2023/06/21 00:07:41;;;;;;;8.98;8.07;;;21.00;99.90;;;;;;5024424;28;20036;-34
2023/06/21 00:10:07;;;;;;;;;;;20.90;99.90;;;;;;5025804;28;20033;-35
2023/06/21 00:12:33;;;;;;;8.50;7.80;;;20.90;99.90;;;;;;5025000;28;19968;-34
2023/06/21 00:14:59;;;;;;;7.78;7.00;;;20.90;99.90;;;;;;5024479;28;20061;-34
2023/06/21 00:17:25;;;;;;;7.05;6.35;;;20.80;99.90;;;;;;5024488;28;20057;-33
2023/06/21 00:19:56;;;;;;;7.50;6.80;;;20.70;99.90;;;;;;5024677;28;20188;-34
2023/06/21 00:22:22;;;;;;;7.25;6.50;;;20.60;99.90;;;;;;5022421;28;20037;-32
2023/06/21 00:24:51;;;;;;;8.25;6.97;;;20.60;99.90;;;;;;5024603;28;20028;-33
2023/06/21 00:27:18;;;;;;;7.80;6.15;;;20.60;99.90;;;;;;5024407;28;20033;-33
2023/06/21 00:29:44;;;;;;;5.97;5.47;;;20.50;99.90;;;;;;5024293;28;20055;-33
2023/06/21 00:32:09;;;;;;;6.10;5.50;;;20.50;99.90;;;;;;5024210;28;20030;-34
2023/06/21 00:34:35;;;;;;;7.97;5.22;;;20.50;99.90;;;;;;5024487;28;20044;-35
2023/06/21 00:37:04;;;;;;;6.05;5.30;;;20.40;99.90;;;;;;5023920;28;20112;-33
2023/06/21 00:39:30;;;;;;;5.25;4.75;;;20.30;99.90;;;;;;5024316;28;20033;-34
2023/06/21 00:41:56;;;;;;;4.97;4.57;;;20.30;99.90;;;;;;5025045;28;20033;-33
2023/06/21 00:44:22;;;;;;;4.95;4.45;;;20.30;99.90;;;;;;5023741;28;20013;-33
2023/06/21 00:46:50;;;;;;;4.47;4.05;;;20.30;99.90;;;;;;5025183;28;20032;-33
2023/06/21 00:49:15;;;;;;;5.00;4.50;;;20.20;99.90;;;;;;5025093;28;20037;-32
2023/06/21 00:51:42;;;;;;;4.78;4.38;;;20.20;99.90;;;;;;5021555;28;20033;-32
2023/06/21 00:54:16;;;;;;;5.50;5.00;;;20.20;99.90;;;;;;5023511;28;20045;-32
2023/06/21 00:56:45;;;;;;;5.68;4.47;;;20.20;99.90;;;;;;5022621;28;20057;-34
2023/06/21 00:59:17;;;;;;;5.45;5.05;;;20.10;99.90;;;;;;5003986;28;20036;-32
2023/06/21 01:01:42;;;;;;;5.07;4.22;;;20.10;99.90;;;;;;5019367;28;20052;-34
2023/06/21 01:04:09;;;;;;;5.05;4.65;;;20.10;99.90;;;;;;5023141;28;20025;-33
2023/06/21 01:06:48;;;;;;;4.72;4.32;;;20.00;99.90;;;;;;5023288;28;20116;-33
2023/06/21 01:09:36;;;;;;;4.78;4.32;;;20.00;99.90;;;;;;5024384;28;20036;-33
2023/06/21 01:12:25;;;;;;;4.50;4.10;;;20.00;99.90;;;;;;5023335;28;20034;-33
2023/06/21 01:15:12;;;;;;;5.30;4.80;;;20.00;99.90;;;;;;5004321;28;20109;-34
2023/06/21 01:17:40;;;;;;;6.05;5.45;;;20.00;99.90;;;;;;5022281;28;20029;-34
2023/06/21 01:20:13;;;;;;;5.65;5.15;;;20.00;99.90;;;;;;5023245;28;20511;-34
2023/06/21 01:23:14;;;;;;;5.57;5.07;;;20.00;99.90;;;;;;5024364;28;20034;-34
2023/06/21 01:26:16;;;;;;;6.03;5.43;;;20.00;99.90;;;;;;5023330;28;20669;-34
2023/06/21 01:29:11;;;;;;;7.10;4.90;;;20.00;99.90;;;;;;5024073;28;20029;-36
2023/06/21 01:31:39;;;;;;;5.35;4.65;;;20.00;99.90;;;;;;5023688;28;20034;-34
2023/06/21 01:34:05;;;;;;;4.80;4.40;;;20.10;99.90;;;;;;5023527;28;20469;-34
2023/06/21 01:36:33;;;;;;;6.15;5.47;;;20.10;99.90;;;;;;5024821;28;20029;-34
2023/06/21 01:39:03;;;;;;;5.63;5.13;;;20.10;99.90;;;;;;5024289;28;20018;-35
2023/06/21 01:41:29;;;;;;;5.95;5.35;;;20.10;99.90;;;;;;5023692;28;20131;-34
2023/06/21 01:43:55;;;;;;;5.75;5.15;;;20.20;99.90;;;;;;5024171;28;20068;-33
2023/06/21 01:46:22;;;;;;;5.90;5.40;;;20.10;99.90;;;;;;5023614;28;20029;-32
2023/06/21 01:48:49;;;;;;;5.95;5.38;;;20.20;99.90;;;;;;5024565;28;20083;-36
2023/06/21 01:51:17;;;;;;;5.60;5.10;;;20.20;99.90;;;;;;5023747;28;20415;-34
2023/06/21 01:53:43;;;;;;;5.88;5.28;;;20.20;99.90;;;;;;5022515;28;20045;-34
2023/06/21 01:56:14;;;;;;;7.05;6.45;;;20.30;99.90;;;;;;5023950;28;20108;-35
2023/06/21 01:58:41;;;;;;;6.43;5.82;;;20.30;99.90;;;;;;5023700;28;20071;-34
2023/06/21 02:01:08;;;;;;;6.65;6.00;;;20.30;99.90;;;;;;5023325;28;20094;-33
2023/06/21 02:03:34;;;;;;;7.05;6.35;;;20.30;99.90;;;;;;5023578;28;20064;-33
2023/06/21 02:06:05;;;;;;;6.93;6.32;;;20.30;99.90;;;;;;5023957;28;20061;-34
2023/06/21 02:08:32;;;;;;;8.25;6.47;;;20.30;99.90;;;;;;5023499;28;20120;-33
2023/06/21 02:11:00;;;;;;;6.80;6.20;;;20.30;99.90;;;;;;5024288;28;20519;-33
2023/06/21 02:13:26;;;;;;;7.50;6.80;;;20.30;99.90;;;;;;5026556;28;20124;-33
2023/06/21 02:15:53;;;;;;;7.78;7.05;;;20.30;99.90;;;;;;5026595;28;20124;-35
2023/06/21 02:18:25;;;;;;;8.00;7.30;;;20.30;99.90;;;;;;5026661;28;20022;-34
2023/06/21 02:20:51;;;;;;;7.77;7.13;;;20.30;99.90;;;;;;5027308;28;20515;-33
2023/06/21 02:23:17;;;;;;;8.50;7.70;;;20.30;99.90;;;;;;5026697;28;20136;-34
2023/06/21 02:25:42;;;;;;;7.40;6.68;;;20.30;99.90;;;;;;5026518;28;20104;-33
2023/06/21 02:28:08;;;;;;;8.45;7.65;;;20.40;99.90;;;;;;5025991;28;20022;-33
2023/06/21 02:30:34;;;;;;;9.07;8.10;;;20.40;99.90;;;;;;5026590;28;20029;-32
2023/06/21 02:33:00;;;;;;;9.50;8.32;;;20.30;99.90;;;;;;5026741;28;20028;-35
2023/06/21 02:35:25;;;;;;;8.25;7.32;;;20.40;99.90;;;;;;5025264;28;20140;-34
2023/06/21 02:37:51;;;;;;;8.07;7.38;;;20.40;99.90;;;;;;5026640;28;20762;-34
2023/06/21 02:40:19;;;;;;;9.23;8.35;;;20.40;99.90;;;;;;5026623;28;20033;-33
2023/06/21 02:42:45;;;;;;;8.82;7.97;;;20.30;99.90;;;;;;5026115;28;20079;-33
2023/06/21 02:45:11;;;;;;;8.80;7.95;;;20.30;99.90;;;;;;5026618;28;20407;-35
2023/06/21 02:47:36;;;;;;;8.10;7.40;;;20.30;99.90;;;;;;5025485;28;20452;-34
2023/06/21 02:50:03;;;;;;;8.38;7.57;;;20.30;99.90;;;;;;5025892;28;20018;-33
2023/06/21 02:52:35;;;;;;;9.68;8.77;;;20.30;99.90;;;;;;5025977;28;20032;-33
2023/06/21 02:55:10;;;;;;;8.30;7.50;;;20.30;99.90;;;;;;5026621;28;20041;-35
2023/06/21 02:57:35;;;;;;;9.43;8.50;;;20.30;99.90;;;;;;5025924;28;20464;-33
2023/06/21 03:00:01;;;;;;;8.77;7.97;;;20.30;99.90;;;;;;5026428;28;20034;-33
2023/06/21 03:02:33;;;;;;;10.27;8.55;;;20.30;99.90;;;;;;5026251;28;20041;-33
2023/06/21 03:05:00;;;;;;;10.05;8.60;;;20.30;99.90;;;;;;5025788;28;20029;-33
2023/06/21 03:07:27;;;;;;;8.63;7.82;;;20.30;99.90;;;;;;5026517;28;20059;-33
2023/06/21 03:09:53;;;;;;;8.48;7.65;;;20.30;99.90;;;;;;5026079;28;20544;-34
2023/06/21 03:12:19;;;;;;;8.45;7.65;;;20.30;99.90;;;;;;5025537;28;20029;-33
2023/06/21 03:14:44;;;;;;;9.20;8.23;;;20.30;99.90;;;;;;5026094;28;20021;-33
2023/06/21 03:17:10;;;;;;;9.65;8.75;;;20.30;99.90;;;;;;5025786;28;20033;-33
2023/06/21 03:19:36;;;;;;;9.27;8.30;;;20.30;99.90;;;;;;5024954;28;20359;-34
2023/06/21 03:22:02;;;;;;;8.70;7.80;;;20.30;99.90;;;;;;5025464;28;20140;-34
2023/06/21 03:24:32;;;;;;;9.40;7.75;;;20.30;99.90;;;;;;5024704;28;20079;-34
2023/06/21 03:27:02;;;;;;;9.35;8.45;;;20.30;99.90;;;;;;5024659;28;20416;-34
2023/06/21 03:29:28;;;;;;;9.10;8.25;;;20.30;99.90;;;;;;5025989;28;20029;-35
2023/06/21 03:31:53;;;;;;;9.80;8.90;;;20.30;99.90;;;;;;5024865;28;20056;-34
2023/06/21 03:34:19;;;;;;;8.73;7.93;;;20.30;99.90;;;;;;5025557;28;20030;-33
2023/06/21 03:36:45;;;;;;;8.95;8.05;;;20.30;99.90;;;;;;5025419;28;20105;-33
2023/06/21 03:39:10;;;;;;;9.32;8.45;;;20.20;99.90;;;;;;5024661;28;20922;-34
2023/06/21 03:41:36;;;;;;;10.23;9.23;;;20.30;99.90;;;;;;5024861;28;20033;-33
2023/06/21 03:44:04;;;;;;;10.35;9.32;;;20.30;99.90;;;;;;5026021;28;20108;-34
2023/06/21 03:46:30;;;;;;;9.30;8.50;;;20.30;99.90;;;;;;5024997;28;20416;-35
2023/06/21 03:48:59;;;;;;;10.35;9.35;;;20.30;99.90;;;;;;5026493;28;20545;-33
2023/06/21 03:51:27;;;;;;;9.85;8.85;;;20.30;99.90;;;;;;5025226;28;20021;-34
2023/06/21 03:53:56;;;;;;;10.80;9.45;;;20.30;99.90;;;;;;5025696;28;20072;-33
2023/06/21 03:56:22;;;;;;;10.80;9.80;;;20.20;99.90;;;;;;5026030;28;20117;-41
2023/06/21 03:58:48;;;;;;;10.50;9.40;;;20.30;99.90;;;;;;5025948;28;20037;-33
2023/06/21 04:01:23;;;;;;;11.15;10.10;;;20.30;99.90;;;;;;5024808;28;20499;-33
2023/06/21 04:03:48;;;;;;;11.10;10.00;;;20.30;99.90;;;;;;5026305;28;20025;-34
2023/06/21 04:06:14;;;;;;;11.05;9.95;;;20.30;99.90;;;;;;5026616;28;20032;-35
2023/06/21 04:08:39;;;;;;;10.50;9.50;;;20.30;99.90;;;;;;5024773;28;20025;-32
2023/06/21 04:11:05;;;;;;;10.35;9.32;;;20.40;99.90;;;;;;5025684;28;20208;-34
2023/06/21 04:13:30;;;;;;;10.32;9.32;;;20.30;99.90;;;;;;5025089;28;20027;-34
2023/06/21 04:15:59;;;;;;;9.80;8.90;;;20.30;99.90;;;;;;5024611;28;20021;-34
2023/06/21 04:18:25;;;;;;;9.93;9.02;;;20.30;99.90;;;;;;5024233;28;20091;-34
2023/06/21 04:20:59;;;;;;;10.55;9.55;;;20.30;99.90;;;;;;5023752;28;20041;-34
2023/06/21 04:23:28;;;;;;;10.88;9.80;;;20.30;99.90;;;;;;5024527;28;20033;-34
2023/06/21 04:25:53;;;;;;;11.07;9.98;;;20.30;99.90;;;;;;5025181;28;20021;-34
2023/06/21 04:28:25;;;;;;;12.10;10.82;;;20.30;99.90;;;;;;5024503;28;20057;-34
2023/06/21 04:30:55;;;;;;;11.65;10.45;;;20.30;99.90;;;;;;5024831;28;20128;-33
2023/06/21 04:33:28;;;;;;;12.80;11.60;;;20.40;99.90;;;;;;5025058;28;20037;-33
2023/06/21 04:35:54;;;;;;;11.73;10.55;;;20.40;99.90;;;;;;5024003;28;20033;-32
2023/06/21 04:38:22;;;;;;;14.80;13.40;;;20.40;99.90;;;;;;5024053;28;20025;-33
2023/06/21 04:40:48;;;;;;;13.48;12.25;;;20.40;99.90;;;;;;5024859;28;20026;-33
2023/06/21 04:43:13;;;;;;;14.63;13.20;;;20.40;99.90;;;;;;5023172;28;20032;-34
2023/06/21 04:45:39;;;;;;;12.32;11.13;;;20.40;99.90;;;;;;5023955;28;20029;-34
2023/06/21 04:48:05;;;;;;;13.45;11.85;;;20.40;99.90;;;;;;5024156;28;20026;-33
2023/06/21 04:50:36;;;;;;;14.00;12.60;;;20.40;99.90;;;;;;5023362;28;20503;-32
2023/06/21 04:53:02;;;;;;;14.50;13.00;;;20.40;99.90;;;;;;5024391;28;20162;-34
2023/06/21 04:55:28;;;;;;;16.67;14.93;;;20.50;99.90;;;;;;5023980;28;20481;-33
2023/06/21 04:58:02;;;;;;;16.23;13.95;;;20.50;99.90;;;;;;5023290;28;20053;-34
2023/06/21 05:00:27;;;;;;;16.70;14.65;;;20.50;99.90;;;;;;5020961;28;20111;-34
2023/06/21 05:03:00;;;;;;;17.35;15.32;;;20.50;99.90;;;;;;5023804;28;20057;-33
2023/06/21 05:05:25;;;;;;;;;;;20.60;99.90;;;;;;5024227;28;20037;-33
2023/06/21 05:07:51;;;;;;;16.52;14.73;;;20.60;99.90;;;;;;5024704;28;19909;-33
2023/06/21 05:10:17;;;;;;;19.42;16.00;;;20.60;99.90;;;;;;5023184;28;20037;-34
2023/06/21 05:12:42;;;;;;;17.40;15.57;;;20.70;99.90;;;;;;5023974;28;20112;-34
2023/06/21 05:15:08;;;;;;;18.38;15.82;;;20.70;99.90;;;;;;5023904;28;20056;-34
2023/06/21 05:17:34;;;;;;;17.95;15.73;;;20.70;99.90;;;;;;5022926;28;20025;-34
2023/06/21 05:20:02;;;;;;;18.10;15.73;;;20.80;99.90;;;;;;5024133;28;20030;-35
2023/06/21 05:22:28;;;;;;;19.55;17.00;;;20.80;99.90;;;;;;5023912;28;20044;-33
2023/06/21 05:24:53;;;;;;;18.10;16.17;;;20.80;99.90;;;;;;5023111;28;20026;-34
2023/06/21 05:27:19;;;;;;;18.08;16.17;;;20.80;99.90;;;;;;5024088;28;20029;-34
2023/06/21 05:29:45;;;;;;;20.05;18.02;;;20.90;99.90;;;;;;5024041;28;20029;-33
2023/06/21 05:32:10;;;;;;;18.35;16.50;;;20.90;99.90;;;;;;5023220;28;20072;-34
2023/06/21 05:34:36;;;;;;;17.52;15.80;;;20.90;99.90;;;;;;5024053;28;20022;-34
2023/06/21 05:37:02;;;;;;;17.98;16.08;;;21.00;99.90;;;;;;5023909;28;20544;-33
2023/06/21 05:39:27;;;;;;;19.50;17.50;;;21.20;99.90;;;;;;5022662;28;20033;-32
2023/06/21 05:41:53;;;;;;;16.35;14.75;;;21.30;99.90;;;;;;5023763;28;20039;-33
2023/06/21 05:44:18;;;;;;;17.13;15.32;;;21.30;99.90;;;;;;5023387;28;20025;-33
2023/06/21 05:46:44;;;;;;;20.02;17.92;;;21.30;99.90;;;;;;5026413;28;20025;-33
2023/06/21 05:49:09;;;;;;;16.83;15.13;;;21.30;99.90;;;;;;5027308;28;20053;-33
2023/06/21 05:51:35;;;;;;;18.20;15.63;;;21.20;99.90;;;;;;5027594;28;20028;-32
2023/06/21 05:54:04;;;;;;;19.92;17.92;;;21.20;99.90;;;;;;5027718;28;20605;-33
2023/06/21 05:56:37;;;;;;;18.80;16.95;;;21.30;99.90;;;;;;5027291;28;20072;-33
2023/06/21 05:59:03;;;;;;;19.15;17.25;;;21.30;99.90;;;;;;5027457;28;20104;-34
2023/06/21 06:01:28;;;;;;;18.58;16.65;;;21.20;99.90;;;;;;5026710;28;20146;-33
2023/06/21 06:03:54;;;;;;;16.63;14.93;;;21.20;99.90;;;;;;5028184;28;20552;-33
2023/06/21 06:06:23;;;;;;;18.75;15.65;;;21.20;99.90;;;;;;5026163;28;20460;-33
2023/06/21 06:08:49;;;;;;;17.98;15.98;;;21.20;99.90;;;;;;5027374;28;20193;-33
2023/06/21 06:11:15;;;;;;;16.40;14.68;;;21.30;99.90;;;;;;5027045;28;20026;-33
2023/06/21 06:13:40;;;;;;;16.35;14.63;;;21.20;99.90;;;;;;5026379;28;20052;-32
2023/06/21 06:16:09;;;;;;;15.38;13.85;;;21.30;99.90;;;;;;5026810;28;20047;-33
2023/06/21 06:18:35;;;;;;;17.73;15.93;;;21.30;99.90;;;;;;5027402;28;20029;-33
2023/06/21 06:21:03;;;;;;;16.77;15.00;;;21.40;99.90;;;;;;5025874;28;20396;-33
2023/06/21 06:23:29;;;;;;;17.42;15.52;;;21.40;99.90;;;;;;5027043;28;20029;-33
2023/06/21 06:25:54;;;;;;;16.83;15.13;;;21.50;99.90;;;;;;5027371;28;20029;-33
2023/06/21 06:28:23;;;;;;;16.05;14.48;;;21.50;99.90;;;;;;5026208;28;20013;-33
2023/06/21 06:30:48;;;;;;;16.70;15.10;;;21.60;99.90;;;;;;5027154;28;20451;-32
2023/06/21 06:33:14;;;;;;;16.75;15.02;;;21.70;99.90;;;;;;5026557;28;20037;-34
2023/06/21 06:35:39;;;;;;;16.58;14.85;;;21.70;99.90;;;;;;5026512;28;20180;-33
2023/06/21 06:38:06;;;;;;;18.27;16.40;;;21.80;99.90;;;;;;5026938;28;20036;-33
2023/06/21 06:40:33;;;;;;;19.30;17.30;;;21.80;99.90;;;;;;5004917;28;20057;-33
2023/06/21 06:42:58;;;;;;;20.10;18.00;;;21.80;99.90;;;;;;5020226;28;20041;-32
2023/06/21 06:45:24;;;;;;;21.08;17.67;;;22.00;99.90;;;;;;5026246;28;20029;-33
2023/06/21 06:47:53;;;;;;;19.13;17.13;;;22.10;99.90;;;;;;5026369;28;20033;-37
2023/06/21 06:50:18;;;;;;;17.63;15.82;;;22.30;99.90;;;;;;5025464;28;20699;-33
2023/06/21 06:52:44;;;;;;;19.23;17.33;;;22.30;99.90;;;;;;5025261;28;20120;-35
2023/06/21 06:55:12;;;;;;;22.60;20.30;;;22.30;99.90;;;;;;5025026;28;20630;-35
2023/06/21 06:57:39;;;;;;;20.38;18.27;;;22.30;99.90;;;;;;5024682;28;20945;-34
2023/06/21 07:00:10;;;;;;;18.80;16.90;;;22.30;99.90;;;;;;5025572;28;20076;-34
2023/06/21 07:02:39;;;;;;;20.30;17.98;;;22.30;99.90;;;;;;5025312;28;20033;-33
2023/06/21 07:05:05;;;;;;;21.33;19.23;;;22.30;99.90;;;;;;5015524;28;20031;-33
2023/06/21 07:07:31;;;;;;;24.98;22.48;;;22.20;99.90;;;;;;5026157;28;20049;-35
2023/06/21 07:09:57;;;;;;;25.48;22.85;;;22.30;99.90;;;;;;5025248;28;20072;-32
2023/06/21 07:12:22;;;;;;;25.02;22.63;;;22.30;99.90;;;;;;5025705;28;20087;-33
2023/06/21 07:14:48;;;;;;;23.73;21.48;;;22.30;99.90;;;;;;5025959;28;20132;-34
2023/06/21 07:17:13;;;;;;;25.52;23.10;;;22.30;99.90;;;;;;5025466;28;20025;-34
2023/06/21 07:19:41;;;;;;;25.58;23.08;;;22.40;99.90;;;;;;5025724;28;20033;-33
2023/06/21 07:22:07;;;;;;;27.88;25.08;;;22.40;99.90;;;;;;5026219;28;20045;-32
2023/06/21 07:24:32;;;;;;;26.88;24.42;;;22.50;99.90;;;;;;5025428;28;20029;-31
2023/06/21 07:26:58;;;;;;;29.40;26.50;;;22.50;99.90;;;;;;5026066;28;20032;-33
2023/06/21 07:29:23;;;;;;;28.70;26.00;;;22.60;99.90;;;;;;5025680;28;20021;-33
2023/06/21 07:31:49;;;;;;;27.40;24.73;;;22.60;99.90;;;;;;5025097;28;20040;-34
2023/06/21 07:34:15;;;;;;;29.27;26.48;;;22.60;99.90;;;;;;5025842;28;20698;-33
2023/06/21 07:36:40;;;;;;;31.05;27.85;;;22.50;99.90;;;;;;5025463;28;20137;-33
2023/06/21 07:39:24;;;;;;;29.17;26.58;;;22.50;99.90;;;;;;5024593;28;20101;-33
2023/06/21 07:41:50;;;;;;;25.08;22.52;;;22.60;99.90;;;;;;5025632;28;20120;-33
2023/06/21 07:44:17;;;;;;;25.25;22.90;;;22.60;99.90;;;;;;5025324;28;20120;-35
2023/06/21 07:46:51;;;;;;;24.40;22.00;;;22.70;99.90;;;;;;5025185;28;20025;-32
2023/06/21 07:49:17;;;;;;;22.75;20.65;;;22.80;99.90;;;;;;5025106;28;20540;-33
2023/06/21 07:51:43;;;;;;;24.92;22.60;;;22.90;99.90;;;;;;5024168;28;20033;-33
2023/06/21 07:54:10;;;;;;;24.70;22.40;;;23.00;99.90;;;;;;5024793;28;20037;-36
2023/06/21 07:56:36;;;;;;;23.23;21.13;;;23.10;99.90;;;;;;5025161;28;20343;-34
2023/06/21 07:59:02;;;;;;;23.70;21.25;;;23.20;99.90;;;;;;5024544;28;20092;-34
2023/06/21 08:01:27;;;;;;;24.30;22.00;;;23.40;99.90;;;;;;5025073;28;20021;-35
2023/06/21 08:03:54;;;;;;;22.67;20.52;;;23.50;99.90;;;;;;5025748;28;20372;-34
2023/06/21 08:06:25;;;;;;;21.55;19.65;;;23.50;99.90;;;;;;5023636;28;20112;-34
2023/06/21 08:08:51;;;;;;;22.35;20.15;;;23.40;99.90;;;;;;5024893;28;20022;-33
2023/06/21 08:11:19;;;;;;;23.33;21.20;;;23.30;99.90;;;;;;5024037;28;20036;-33
2023/06/21 08:13:45;;;;;;;22.85;20.52;;;23.30;99.90;;;;;;5024610;28;20032;-34
2023/06/21 08:16:11;;;;;;;21.10;19.13;;;23.30;99.90;;;;;;5024337;28;20021;-33
2023/06/21 08:18:36;;;;;;;22.83;20.63;;;23.30;99.90;;;;;;5024339;28;20033;-34
2023/06/21 08:21:05;;;;;;;22.15;20.00;;;23.40;99.90;;;;;;5023808;28;20045;-34
2023/06/21 08:23:31;;;;;;;20.75;18.60;;;23.30;99.90;;;;;;5024447;28;20428;-34
2023/06/21 08:25:56;;;;;;;19.35;17.45;;;23.20;99.90;;;;;;5024587;28;20029;-32
2023/06/21 08:28:22;;;;;;;19.38;17.38;;;23.10;99.90;;;;;;5023820;28;20029;-32
2023/06/21 08:30:48;;;;;;;17.05;15.45;;;23.10;99.90;;;;;;5024771;28;20366;-33
2023/06/21 08:33:13;;;;;;;15.90;14.40;;;23.00;99.90;;;;;;5024312;28;20029;-33
2023/06/21 08:35:39;;;;;;;16.80;15.30;;;22.90;99.90;;;;;;5023931;28;20022;-33
2023/06/21 08:38:04;;;;;;;15.05;13.60;;;22.90;99.90;;;;;;5024078;28;20037;-33
2023/06/21 08:40:32;;;;;;;15.95;14.45;;;22.90;99.90;;;;;;5024254;28;20057;-33
2023/06/21 08:42:59;;;;;;;15.90;14.40;;;22.90;99.90;;;;;;5024189;28;20021;-33
2023/06/21 08:45:24;;;;;;;15.95;14.43;;;23.00;99.90;;;;;;5023793;28;20251;-33
2023/06/21 08:47:53;;;;;;;13.38;11.93;;;23.10;99.90;;;;;;5024263;28;20679;-33
2023/06/21 08:50:21;;;;;;;11.27;10.27;;;23.10;99.90;;;;;;5023642;28;20032;-33
2023/06/21 08:52:52;;;;;;;9.65;8.65;;;23.10;99.90;;;;;;5024146;28;20030;-34
2023/06/21 08:55:20;;;;;;;11.80;10.70;;;23.10;99.90;;;;;;5023450;28;20041;-33
2023/06/21 08:57:56;;;;;;;10.77;9.68;;;23.10;99.90;;;;;;5024574;28;20026;-33
2023/06/21 09:00:48;;;;;;;9.75;8.85;;;23.20;99.90;;;;;;5003538;28;20116;-33
2023/06/21 09:03:45;;;;;;;8.60;7.90;;;23.30;99.90;;;;;;5016003;28;20081;-34
2023/06/21 09:06:15;;;;;;;10.48;9.57;;;23.40;99.90;;;;;;5023647;28;20067;-33
2023/06/21 09:08:41;;;;;;;10.43;9.52;;;23.50;99.90;;;;;;5024209;28;20136;-34
2023/06/21 09:11:09;;;;;;;9.82;8.93;;;23.60;99.90;;;;;;5023148;28;20866;-33
2023/06/21 09:13:39;;;;;;;11.57;10.57;;;23.70;99.90;;;;;;5023696;28;20477;-33
2023/06/21 09:16:06;;;;;;;10.05;9.10;;;23.70;99.90;;;;;;5023341;28;20742;-34
2023/06/21 09:18:39;;;;;;;9.15;8.35;;;23.70;99.90;;;;;;5024045;28;20441;-33
2023/06/21 09:21:06;;;;;;;8.48;7.78;;;23.70;99.90;;;;;;5026178;28;20040;-33
2023/06/21 09:23:31;;;;;;;7.75;7.10;;;23.70;99.90;;;;;;5027753;28;20080;-34
2023/06/21 09:25:57;;;;;;;7.60;6.47;;;23.80;99.90;;;;;;5028160;28;20029;-33
2023/06/21 09:28:23;;;;;;;6.50;5.90;;;23.80;99.90;;;;;;5027029;28;20480;-35
2023/06/21 09:30:49;;;;;;;6.65;5.70;;;23.80;99.90;;;;;;5028109;28;20032;-34
2023/06/21 09:33:15;;;;;;;5.32;4.88;;;23.80;99.90;;;;;;5027635;28;20044;-34
2023/06/21 09:35:42;;;;;;;5.03;4.47;;;23.80;99.90;;;;;;5028492;28;20471;-33
2023/06/21 09:38:24;;;;;;;4.30;3.90;;;23.80;99.90;;;;;;5027403;28;20059;-35
2023/06/21 09:40:50;;;;;;;4.13;3.83;;;23.80;99.90;;;;;;5028668;28;20033;-34
2023/06/21 09:43:18;;;;;;;4.25;3.63;;;23.80;99.90;;;;;;5027889;28;20095;-35
2023/06/21 09:46:03;;;;;;;4.32;3.92;;;23.70;99.90;;;;;;5007839;28;20049;-35
2023/06/21 09:48:36;;;;;;;3.17;2.90;;;23.70;99.90;;;;;;5017427;28;20464;-35
2023/06/21 09:51:04;;;;;;;3.28;2.65;;;23.60;99.90;;;;;;5028556;28;20033;-33
2023/06/21 09:53:30;;;;;;;3.00;2.70;;;23.60;99.90;;;;;;5026885;28;20084;-36
2023/06/21 09:55:56;;;;;;;3.20;2.80;;;23.60;99.90;;;;;;5027818;28;20014;-34
2023/06/21 09:58:22;;;;;;;3.10;2.80;;;23.60;99.90;;;;;;5026753;28;20029;-34
2023/06/21 10:00:48;;;;;;;3.80;3.03;;;23.70;99.90;;;;;;5027930;28;20021;-34
2023/06/21 10:03:14;;;;;;;3.33;3.03;;;23.70;99.90;;;;;;5027699;28;20393;-33
2023/06/21 10:05:56;;;;;;;3.30;3.00;;;23.70;99.90;;;;;;5027558;28;20072;-34
2023/06/21 10:08:27;;;;;;;3.38;3.05;;;23.80;99.90;;;;;;5026065;28;20041;-33
2023/06/21 10:10:53;;;;;;;4.25;3.30;;;23.80;99.90;;;;;;5024738;28;20017;-34
2023/06/21 10:13:32;;;;;;;4.47;3.20;;;23.90;99.90;;;;;;5027090;28;20030;-34
2023/06/21 10:16:00;;;;;;;2.90;2.63;;;23.90;99.90;;;;;;5024272;28;20028;-35
2023/06/21 10:18:26;;;;;;;3.88;3.30;;;23.90;99.90;;;;;;5027578;28;20025;-35
2023/06/21 10:20:56;;;;;;;3.25;2.80;;;24.00;99.90;;;;;;5026686;28;20036;-35
2023/06/21 10:23:26;;;;;;;2.83;2.40;;;24.10;99.90;;;;;;5026945;28;20029;-35
2023/06/21 10:25:55;;;;;;;2.53;2.15;;;24.20;99.90;;;;;;5026844;28;20120;-35
2023/06/21 10:28:26;;;;;;;2.92;2.60;;;24.30;99.90;;;;;;5026343;28;20136;-35
2023/06/21 10:30:56;;;;;;;4.93;2.50;;;24.50;99.90;;;;;;5026894;28;20056;-35
2023/06/21 10:33:22;;;;;;;2.97;2.67;;;24.60;99.90;;;;;;5025766;28;20021;-34
2023/06/21 10:35:51;;;;;;;3.28;2.25;;;24.70;99.90;;;;;;5026664;28;20444;-34
2023/06/21 10:38:48;;;;;;;3.65;2.33;;;24.80;99.90;;;;;;5026377;28;20551;-35
2023/06/21 10:41:14;;;;;;;2.90;2.60;;;25.00;99.90;;;;;;5025758;28;20362;-35
2023/06/21 10:43:41;;;;;;;2.72;2.45;;;25.20;99.90;;;;;;5026789;28;20041;-35
2023/06/21 10:46:09;;;;;;;2.60;2.40;;;25.40;99.90;;;;;;5026976;28;20021;-35
2023/06/21 10:48:35;;;;;;;2.05;1.88;;;25.50;99.90;;;;;;5026470;28;20482;-35
2023/06/21 10:51:02;;;;;;;2.70;2.40;;;25.60;99.90;;;;;;5027221;28;20561;-35
2023/06/21 10:53:32;;;;;;;2.50;2.20;;;25.70;99.90;;;;;;5025993;28;20041;-34
2023/06/21 10:56:00;;;;;;;3.25;2.10;;;25.70;99.90;;;;;;5025770;28;20372;-34
2023/06/21 10:58:27;;;;;;;2.30;2.05;;;25.70;99.90;;;;;;5026244;28;20030;-36
2023/06/21 11:00:54;;;;;;;2.35;1.90;;;25.70;99.90;;;;;;5026507;28;20068;-34
2023/06/21 11:03:25;;;;;;;2.28;2.08;;;25.70;99.90;;;;;;5025565;28;20028;-34
2023/06/21 11:05:55;;;;;;;3.42;2.55;;;25.70;99.90;;;;;;5027103;28;20025;-35
2023/06/21 11:08:39;;;;;;;2.63;2.42;;;25.70;99.90;;;;;;5025846;28;20103;-35
2023/06/21 11:11:08;;;;;;;2.75;2.55;;;25.70;99.90;;;;;;5025672;28;20038;-33
2023/06/21 11:13:35;;;;;;;2.63;2.42;;;25.60;99.90;;;;;;5025960;28;20025;-36
2023/06/21 11:16:16;;;;;;;2.08;1.88;;;25.60;99.90;;;;;;5025096;28;20491;-34
2023/06/21 11:18:59;;;;;;;2.00;1.80;;;25.50;99.90;;;;;;5016668;28;20041;-34
2023/06/21 11:21:49;;;;;;;2.40;2.17;;;25.60;99.90;;;;;;5025376;28;20037;-34
2023/06/21 11:24:16;;;;;;;3.20;2.40;;;25.70;99.90;;;;;;5025464;28;20025;-34
2023/06/21 11:26:52;;;;;;;2.35;2.15;;;25.90;99.90;;;;;;5025926;28;20108;-34
2023/06/21 11:29:18;;;;;;;2.55;2.35;;;26.10;99.90;;;;;;5024999;28;20025;-34
2023/06/21 11:31:43;;;;;;;2.83;2.03;;;26.10;99.90;;;;;;5025211;28;20052;-33
2023/06/21 11:34:22;;;;;;;1.92;1.83;;;26.10;99.90;;;;;;5025327;28;20108;-32
2023/06/21 11:36:48;;;;;;;2.38;2.17;;;26.10;99.90;;;;;;5025099;28;20473;-33
2023/06/21 11:39:16;;;;;;;2.63;2.42;;;26.20;99.90;;;;;;5025358;28;20025;-33
2023/06/21 11:41:45;;;;;;;4.53;2.70;;;26.20;99.90;;;;;;5025378;28;20107;-33
2023/06/21 11:44:14;;;;;;;2.65;2.05;;;26.30;99.90;;;;;;5024064;28;20597;-32
2023/06/21 11:46:42;;;;;;;2.20;1.95;;;26.40;99.90;;;;;;5023769;28;20120;-33
2023/06/21 11:49:08;;;;;;;2.72;2.40;;;26.40;99.90;;;;;;5024851;28;20025;-34
2023/06/21 11:51:34;;;;;;;2.20;2.00;;;26.40;99.40;;;;;;5024321;28;20096;-33
2023/06/21 11:53:59;;;;;;;2.30;2.10;;;26.50;99.30;;;;;;5024713;28;20046;-34
2023/06/21 11:56:37;;;;;;;2.13;1.90;;;26.40;99.10;;;;;;5024747;28;20071;-34
2023/06/21 11:59:07;;;;;;;2.22;1.98;;;26.40;99.10;;;;;;5024509;28;20065;-34
2023/06/21 12:01:33;;;;;;;3.35;2.00;;;26.40;99.10;;;;;;5025309;28;20042;-35
2023/06/21 12:03:59;;;;;;;3.40;2.00;;;26.50;98.90;;;;;;5025086;28;20022;-34
2023/06/21 12:06:25;;;;;;;2.17;1.98;;;26.50;98.60;;;;;;5004919;28;20046;-33
2023/06/21 12:08:56;;;;;;;1.50;1.40;;;26.60;98.40;;;;;;5019718;28;20014;-34
2023/06/21 12:11:26;;;;;;;1.90;1.70;;;26.60;98.60;;;;;;5024658;28;20057;-34
2023/06/21 12:13:51;;;;;;;1.58;1.48;;;26.50;98.60;;;;;;5024389;28;20467;-33
2023/06/21 12:16:17;;;;;;;1.60;1.50;;;26.50;98.30;;;;;;5024137;28;20040;-34
2023/06/21 12:18:43;;;;;;;3.40;1.48;;;26.40;98.40;;;;;;5024630;28;20026;-34
2023/06/21 12:21:09;;;;;;;2.15;1.50;;;26.40;98.40;;;;;;5024066;28;20037;-32
2023/06/21 12:23:35;;;;;;;2.50;1.60;;;26.30;98.30;;;;;;5024350;28;20022;-35
2023/06/21 12:26:02;;;;;;;2.63;1.85;;;26.30;98.30;;;;;;5024212;28;20048;-36
2023/06/21 12:28:30;;;;;;;1.77;1.67;;;26.20;97.80;;;;;;5025005;28;20056;-35
2023/06/21 12:30:58;;;;;;;2.10;1.90;;;26.10;97.70;;;;;;5015044;28;20016;-34
2023/06/21 12:33:34;;;;;;;2.35;2.15;;;26.10;97.50;;;;;;5023698;28;20876;-33
2023/06/21 12:36:18;;;;;;;1.98;1.77;;;26.10;97.40;;;;;;5025497;28;20712;-35
2023/06/21 12:39:07;;;;;;;1.70;1.58;;;26.00;97.50;;;;;;5025233;28;20025;-34
2023/06/21 12:41:34;;;;;;;1.65;1.55;;;26.00;97.50;;;;;;5016878;28;20132;-34
2023/06/21 12:44:06;;;;;;;1.77;1.67;;;26.00;97.60;;;;;;5024497;28;20229;-34
2023/06/21 12:46:40;;;;;;;2.35;2.13;;;26.00;97.60;;;;;;5024592;28;20659;-34